createdAt,value
2019-02-20T00:02:09.525Z,11.00
2019-02-20T00:04:50.412Z,11.17
2019-02-20T00:07:31.088Z,10.83
2019-02-20T00:10:12.045Z,10.53
2019-02-20T00:12:52.495Z,11.40
2019-02-20T00:15:32.828Z,11.60
2019-02-20T00:18:13.452Z,11.17
2019-02-20T00:20:54.256Z,10.90
2019-02-20T00:23:34.964Z,11.37
2019-02-20T00:26:16.013Z,10.20
2019-02-20T00:28:57.132Z,11.97
2019-02-20T00:31:37.947Z,12.57
2019-02-20T00:34:18.649Z,11.30
2019-02-20T00:36:59.320Z,11.83
2019-02-20T00:39:40.280Z,11.57
2019-02-20T00:42:20.966Z,12.63
2019-02-20T00:45:03.288Z,12.90
2019-02-20T00:50:39.808Z,11.10
2019-02-20T00:53:39.896Z,11.43
2019-02-20T00:56:20.962Z,10.53
2019-02-20T00:59:02.149Z,12.80
2019-02-20T01:01:43.279Z,12.97
2019-02-20T01:04:23.888Z,11.40
2019-02-20T01:07:05.249Z,10.90
2019-02-20T01:09:45.562Z,11.63
2019-02-20T01:12:26.117Z,11.13
2019-02-20T01:15:06.880Z,11.77
2019-02-20T01:17:47.640Z,11.63
2019-02-20T01:20:28.261Z,11.07
2019-02-20T01:23:08.724Z,11.17
2019-02-20T01:25:49.552Z,11.63
2019-02-20T01:28:30.240Z,11.23
2019-02-20T01:31:10.905Z,11.20
2019-02-20T01:33:51.673Z,10.77
2019-02-20T01:36:32.197Z,11.03
2019-02-20T01:39:12.941Z,9.17
2019-02-20T01:41:53.551Z,11.30
2019-02-20T01:44:34.372Z,10.10
2019-02-20T01:47:15.430Z,9.57
2019-02-20T01:49:56.124Z,9.97
2019-02-20T01:52:36.928Z,9.40
2019-02-20T01:55:17.379Z,10.07
2019-02-20T01:57:58.029Z,10.07
2019-02-20T02:00:38.614Z,9.77
2019-02-20T02:03:19.200Z,9.40
2019-02-20T02:05:59.773Z,9.47
2019-02-20T02:08:40.493Z,9.37
2019-02-20T02:11:21.060Z,9.70
2019-02-20T02:14:01.768Z,10.27
2019-02-20T02:16:30.180Z,8.40
2019-02-20T02:19:17.919Z,9.77
2019-02-20T02:22:05.685Z,9.27
2019-02-20T02:24:53.408Z,9.83
2019-02-20T02:27:41.160Z,9.73
2019-02-20T02:30:29.162Z,9.47
2019-02-20T02:33:09.920Z,9.63
2019-02-20T02:35:50.540Z,9.80
2019-02-20T02:38:31.404Z,9.53
2019-02-20T02:41:12.317Z,9.80
2019-02-20T02:43:53.146Z,9.40
2019-02-20T02:46:33.771Z,8.83
2019-02-20T02:49:14.880Z,9.47
2019-02-20T02:51:55.248Z,9.50
2019-02-20T02:54:23.671Z,9.77
2019-02-20T02:57:11.431Z,9.13
2019-02-20T02:59:59.196Z,10.27
2019-02-20T03:02:46.950Z,10.30
2019-02-20T03:05:15.352Z,10.57
2019-02-20T03:08:03.116Z,10.60
2019-02-20T03:10:50.854Z,9.80
2019-02-20T03:13:38.612Z,10.87
2019-02-20T03:16:26.353Z,10.33
2019-02-20T03:19:07.461Z,11.40
2019-02-20T03:21:48.301Z,11.33
2019-02-20T03:24:28.481Z,11.70
2019-02-20T03:27:08.677Z,11.57
2019-02-20T03:29:49.927Z,11.93
2019-02-20T03:32:30.498Z,11.60
2019-02-20T03:35:11.229Z,12.77
2019-02-20T03:37:52.249Z,12.20
2019-02-20T03:40:33.022Z,13.00
2019-02-20T03:43:14.545Z,14.50
2019-02-20T03:45:55.461Z,14.67
2019-02-20T03:48:36.389Z,15.40
2019-02-20T03:51:17.026Z,14.80
2019-02-20T03:53:57.904Z,14.83
2019-02-20T03:56:38.465Z,17.00
2019-02-20T03:59:19.169Z,15.73
2019-02-20T04:01:59.974Z,15.90
2019-02-20T04:04:40.493Z,15.77
2019-02-20T04:07:21.072Z,15.77
2019-02-20T04:10:01.835Z,16.00
2019-02-20T04:12:30.240Z,16.30
2019-02-20T04:15:18.013Z,16.00
2019-02-20T04:17:59.029Z,16.23
2019-02-20T04:20:39.503Z,15.27
2019-02-20T04:23:20.379Z,15.83
2019-02-20T04:26:01.042Z,16.07
2019-02-20T04:28:42.270Z,15.83
2019-02-20T04:31:22.903Z,15.10
2019-02-20T04:34:03.951Z,15.70
2019-02-20T04:36:44.780Z,15.23
2019-02-20T04:39:24.987Z,15.60
2019-02-20T04:42:05.683Z,15.93
2019-02-20T04:44:46.747Z,15.90
2019-02-20T04:47:27.476Z,14.47
2019-02-20T04:50:08.307Z,15.33
2019-02-20T04:52:49.286Z,15.80
2019-02-20T04:55:30.177Z,15.97
2019-02-20T04:58:10.864Z,16.50
2019-02-20T05:00:52.122Z,15.50
2019-02-20T05:03:32.674Z,15.30
2019-02-20T05:06:13.412Z,14.83
2019-02-20T05:08:54.196Z,14.87
2019-02-20T05:11:34.888Z,16.00
2019-02-20T05:14:15.732Z,15.40
2019-02-20T05:16:56.602Z,15.27
2019-02-20T05:19:37.525Z,16.00
2019-02-20T05:22:18.146Z,14.87
2019-02-20T05:24:59.281Z,14.30
2019-02-20T05:27:39.650Z,15.37
2019-02-20T05:30:20.562Z,16.20
2019-02-20T05:33:01.143Z,16.63
2019-02-20T05:35:42.222Z,15.60
2019-02-20T05:38:23.288Z,16.10
2019-02-20T05:41:04.340Z,16.50
2019-02-20T05:43:44.942Z,16.40
2019-02-20T05:46:25.702Z,16.37
2019-02-20T05:49:06.604Z,16.50
2019-02-20T05:51:47.657Z,15.83
2019-02-20T05:54:34.442Z,15.53
2019-02-20T05:57:10.936Z,16.67
2019-02-20T05:59:51.856Z,16.27
2019-02-20T06:02:32.602Z,17.07
2019-02-20T06:05:13.867Z,15.87
2019-02-20T06:07:54.483Z,16.20
2019-02-20T06:10:35.252Z,16.13
2019-02-20T06:13:16.049Z,16.03
2019-02-20T06:15:56.841Z,16.33
2019-02-20T06:18:37.618Z,17.33
2019-02-20T06:21:18.646Z,16.47
2019-02-20T06:23:59.496Z,16.80
2019-02-20T06:26:40.165Z,16.73
2019-02-20T06:29:21.417Z,17.93
2019-02-20T06:32:02.507Z,16.83
2019-02-20T06:34:42.873Z,17.50
2019-02-20T06:37:23.361Z,17.77
2019-02-20T06:40:04.041Z,18.10
2019-02-20T06:42:45.000Z,18.03
2019-02-20T06:45:25.443Z,19.17
2019-02-20T06:48:06.048Z,19.30
2019-02-20T06:50:46.193Z,19.10
2019-02-20T06:53:27.173Z,18.53
2019-02-20T06:56:08.407Z,18.37
2019-02-20T06:58:49.137Z,18.50
2019-02-20T07:01:29.623Z,17.80
2019-02-20T07:04:10.789Z,18.70
2019-02-20T07:06:51.371Z,20.30
2019-02-20T07:09:32.286Z,19.53
2019-02-20T07:12:13.556Z,19.20
2019-02-20T07:14:54.512Z,18.70
2019-02-20T07:17:35.188Z,19.33
2019-02-20T07:20:16.469Z,20.83
2019-02-20T07:22:56.999Z,18.80
2019-02-20T07:25:37.980Z,19.83
2019-02-20T07:28:18.590Z,20.00
2019-02-20T07:30:59.112Z,20.03
2019-02-20T07:33:39.481Z,19.07
2019-02-20T07:36:19.837Z,19.40
2019-02-20T07:39:00.622Z,20.27
2019-02-20T07:41:41.468Z,20.53
2019-02-20T07:44:22.257Z,19.70
2019-02-20T07:47:03.228Z,20.67
2019-02-20T07:49:43.976Z,20.63
2019-02-20T07:52:24.337Z,21.57
2019-02-20T07:55:12.941Z,21.17
2019-02-20T07:57:47.825Z,21.53
2019-02-20T08:00:28.797Z,21.43
2019-02-20T08:03:09.028Z,21.03
2019-02-20T08:05:50.037Z,21.87
2019-02-20T08:08:30.585Z,20.93
2019-02-20T08:11:11.038Z,21.27
2019-02-20T08:13:51.739Z,19.60
2019-02-20T08:16:32.426Z,20.27
2019-02-20T08:19:13.329Z,22.80
2019-02-20T08:21:53.833Z,20.57
2019-02-20T08:24:34.569Z,20.67
2019-02-20T08:27:15.049Z,19.83
2019-02-20T08:29:55.847Z,20.93
2019-02-20T08:32:36.016Z,20.30
2019-02-20T08:35:16.625Z,20.93
2019-02-20T08:37:57.746Z,20.80
2019-02-20T08:40:38.784Z,20.83
2019-02-20T08:43:19.210Z,21.00
2019-02-20T08:45:59.938Z,20.50
2019-02-20T08:48:40.677Z,20.93
2019-02-20T08:51:21.257Z,21.03
2019-02-20T08:54:04.335Z,21.60
2019-02-20T08:56:44.728Z,20.13
2019-02-20T08:59:25.575Z,21.43
2019-02-20T09:02:06.520Z,21.00
2019-02-20T09:04:47.125Z,21.73
2019-02-20T09:07:28.056Z,23.23
2019-02-20T09:10:08.917Z,22.67
2019-02-20T09:12:49.741Z,23.13
2019-02-20T09:15:30.570Z,21.53
2019-02-20T09:18:11.042Z,22.23
2019-02-20T09:20:51.538Z,22.27
2019-02-20T09:23:32.346Z,17.73
2019-02-20T09:26:12.667Z,23.23
2019-02-20T09:28:53.778Z,27.83
2019-02-20T09:31:34.548Z,27.97
2019-02-20T09:34:15.112Z,28.77
2019-02-20T09:36:56.056Z,28.17
2019-02-20T09:39:36.954Z,27.70
2019-02-20T09:42:17.788Z,25.63
2019-02-20T09:44:58.326Z,26.07
2019-02-20T09:47:38.992Z,25.37
2019-02-20T09:50:19.708Z,25.40
2019-02-20T09:53:00.172Z,25.57
2019-02-20T09:55:40.995Z,24.23
2019-02-20T09:58:21.443Z,24.10
2019-02-20T10:01:02.914Z,25.37
2019-02-20T10:03:43.500Z,25.13
2019-02-20T10:06:24.262Z,24.70
2019-02-20T10:09:04.680Z,23.60
2019-02-20T10:11:45.149Z,26.43
2019-02-20T10:14:25.960Z,24.70
2019-02-20T10:17:06.489Z,24.40
2019-02-20T10:19:47.373Z,25.23
2019-02-20T10:22:28.217Z,27.50
2019-02-20T10:25:09.484Z,26.10
2019-02-20T10:27:49.928Z,31.30
2019-02-20T10:30:30.433Z,30.40
2019-02-20T10:33:11.370Z,27.83
2019-02-20T10:35:52.052Z,28.47
2019-02-20T10:38:32.691Z,28.77
2019-02-20T10:41:13.410Z,28.60
2019-02-20T10:43:53.801Z,27.30
2019-02-20T10:46:34.114Z,27.40
2019-02-20T10:49:15.040Z,27.73
2019-02-20T10:51:55.725Z,27.67
2019-02-20T10:54:36.439Z,26.23
2019-02-20T10:57:16.837Z,27.17
2019-02-20T10:59:57.325Z,27.17
2019-02-20T11:02:38.092Z,25.00
2019-02-20T11:05:18.611Z,26.17
2019-02-20T11:07:59.260Z,26.33
2019-02-20T11:10:39.873Z,25.50
2019-02-20T11:13:20.613Z,25.80
2019-02-20T11:16:01.232Z,27.20
2019-02-20T11:18:41.556Z,29.10
2019-02-20T11:21:22.652Z,29.87
2019-02-20T11:24:03.261Z,32.53
2019-02-20T11:26:53.167Z,30.73
2019-02-20T11:29:26.324Z,29.80
2019-02-20T11:32:07.207Z,26.67
2019-02-20T11:34:48.172Z,24.93
2019-02-20T11:37:29.084Z,26.87
2019-02-20T11:40:09.849Z,26.93
2019-02-20T11:42:50.621Z,27.60
2019-02-20T11:45:31.460Z,27.23
2019-02-20T11:48:12.156Z,26.20
2019-02-20T11:50:53.002Z,15.97
2019-02-20T11:53:37.188Z,26.90
2019-02-20T11:56:16.020Z,27.80
2019-02-20T11:58:56.745Z,27.20
2019-02-20T12:01:37.026Z,27.00
2019-02-20T12:04:18.140Z,27.33
2019-02-20T12:06:58.892Z,27.40
2019-02-20T12:09:39.664Z,29.27
2019-02-20T12:12:20.079Z,29.40
2019-02-20T12:15:00.500Z,31.20
2019-02-20T12:17:41.137Z,30.83
2019-02-20T12:20:21.820Z,24.30
2019-02-20T12:23:02.319Z,30.70
2019-02-20T12:25:42.832Z,32.03
2019-02-20T12:28:23.566Z,32.57
2019-02-20T12:31:04.661Z,32.20
2019-02-20T12:33:45.417Z,32.63
2019-02-20T12:36:26.229Z,31.50
2019-02-20T12:39:06.848Z,30.37
2019-02-20T12:41:47.769Z,29.67
2019-02-20T12:44:28.201Z,31.43
2019-02-20T12:47:08.746Z,32.30
2019-02-20T12:49:49.223Z,32.63
2019-02-20T12:52:30.084Z,30.97
2019-02-20T12:55:10.588Z,32.07
2019-02-20T12:57:51.078Z,31.40
2019-02-20T13:00:31.632Z,31.80
2019-02-20T13:03:11.873Z,32.07
2019-02-20T13:05:52.788Z,31.87
2019-02-20T13:08:33.276Z,32.80
2019-02-20T13:11:14.615Z,32.07
2019-02-20T13:13:54.872Z,31.33
2019-02-20T13:16:35.448Z,30.40
2019-02-20T13:19:16.070Z,30.47
2019-02-20T13:21:56.997Z,33.63
2019-02-20T13:24:37.956Z,34.33
2019-02-20T13:27:22.732Z,33.70
2019-02-20T13:30:01.529Z,33.50
2019-02-20T13:32:41.804Z,33.93
2019-02-20T13:35:22.510Z,33.67
2019-02-20T13:38:03.001Z,30.27
2019-02-20T13:40:43.344Z,28.40
2019-02-20T13:43:23.981Z,29.40
2019-02-20T13:46:04.684Z,24.93
2019-02-20T13:48:45.729Z,28.73
2019-02-20T13:51:26.474Z,29.53
2019-02-20T13:54:07.246Z,26.10
2019-02-20T13:56:47.832Z,28.40
2019-02-20T13:59:28.650Z,28.43
2019-02-20T14:02:09.504Z,28.13
2019-02-20T14:04:49.829Z,26.40
2019-02-20T14:07:30.628Z,27.83
2019-02-20T14:10:11.232Z,26.77
2019-02-20T14:12:51.929Z,25.50
2019-02-20T14:15:32.636Z,26.03
2019-02-20T14:18:14.033Z,25.93
2019-02-20T14:20:54.997Z,25.93
2019-02-20T14:23:35.751Z,25.23
2019-02-20T14:26:16.981Z,25.60
2019-02-20T14:28:57.601Z,26.40
2019-02-20T14:31:37.028Z,25.77
2019-02-20T14:34:05.681Z,25.43
2019-02-20T14:36:53.463Z,24.07
2019-02-20T14:39:41.274Z,23.67
2019-02-20T14:42:29.288Z,24.90
2019-02-20T14:45:17.055Z,23.17
2019-02-20T14:48:04.826Z,24.80
2019-02-20T14:50:52.680Z,23.43
2019-02-20T14:53:33.938Z,23.90
2019-02-20T14:56:14.637Z,22.50
2019-02-20T14:58:55.716Z,25.00
2019-02-20T15:01:36.281Z,23.33
2019-02-20T15:04:16.749Z,22.40
2019-02-20T15:06:57.464Z,23.10
2019-02-20T15:09:38.165Z,23.33
2019-02-20T15:12:18.821Z,23.67
2019-02-20T15:14:59.288Z,22.87
2019-02-20T15:17:40.244Z,22.87
2019-02-20T15:20:21.159Z,22.53
2019-02-20T15:23:02.082Z,20.53
2019-02-20T15:25:30.596Z,19.77
2019-02-20T15:28:18.589Z,20.27
2019-02-20T15:31:06.364Z,20.60
2019-02-20T15:33:54.104Z,20.07
2019-02-20T15:36:43.895Z,18.07
2019-02-20T15:39:31.947Z,18.93
2019-02-20T15:42:00.368Z,16.93
2019-02-20T15:44:30.520Z,15.70
2019-02-20T15:47:18.285Z,16.70
2019-02-20T15:50:26.792Z,16.60
2019-02-20T15:53:14.576Z,16.07
2019-02-20T15:56:02.324Z,17.67
2019-02-20T15:58:50.081Z,15.30
2019-02-20T16:01:38.140Z,14.67
2019-02-20T16:04:27.635Z,15.33
2019-02-20T16:07:15.406Z,14.30
2019-02-20T16:12:58.192Z,13.33
2019-02-20T16:15:45.938Z,12.50
2019-02-20T16:18:33.719Z,11.77
2019-02-20T16:21:21.537Z,12.50
2019-02-20T16:24:09.299Z,11.67
2019-02-20T16:26:49.848Z,11.63
2019-02-20T16:29:30.675Z,10.97
2019-02-20T16:32:11.491Z,10.93
2019-02-20T16:34:52.185Z,10.80
2019-02-20T16:37:33.355Z,9.10
2019-02-20T16:40:14.212Z,9.77
2019-02-20T16:42:55.179Z,8.87
2019-02-20T16:45:36.194Z,7.20
2019-02-20T16:48:16.912Z,7.03
2019-02-20T16:50:57.500Z,6.40
2019-02-20T16:53:38.225Z,6.43
2019-02-20T16:56:19.460Z,6.87
2019-02-20T16:59:00.148Z,6.33
2019-02-20T17:01:40.768Z,6.67
2019-02-20T17:04:21.701Z,6.43
2019-02-20T17:07:02.601Z,5.97
2019-02-20T17:09:43.265Z,6.17
2019-02-20T17:12:24.356Z,6.53
2019-02-20T17:15:05.004Z,7.37
2019-02-20T17:17:45.702Z,4.83
2019-02-20T17:20:26.503Z,5.43
2019-02-20T17:23:07.565Z,5.63
2019-02-20T17:25:48.389Z,5.07
2019-02-20T17:28:29.381Z,5.90
2019-02-20T17:31:10.494Z,5.83
2019-02-20T17:33:51.196Z,4.73
2019-02-20T17:36:31.788Z,5.17
2019-02-20T17:39:12.517Z,4.97
2019-02-20T17:41:52.796Z,5.27
2019-02-20T17:44:33.660Z,6.00
2019-02-20T17:47:14.362Z,5.67
2019-02-20T17:49:55.252Z,6.30
2019-02-20T17:52:35.866Z,5.90
2019-02-20T17:55:16.436Z,5.40
2019-02-20T17:57:57.327Z,5.60
2019-02-20T18:00:38.196Z,5.03
2019-02-20T18:03:18.983Z,5.70
2019-02-20T18:05:59.731Z,5.97
2019-02-20T18:08:40.259Z,5.10
2019-02-20T18:11:21.093Z,5.67
2019-02-20T18:14:02.158Z,5.70
2019-02-20T18:16:30.904Z,4.93
2019-02-20T18:19:18.704Z,4.87
2019-02-20T18:22:06.493Z,4.73
2019-02-20T18:24:54.272Z,4.97
2019-02-20T18:27:42.041Z,4.97
2019-02-20T18:30:31.715Z,4.63
2019-02-20T18:33:19.904Z,5.23
2019-02-20T18:36:00.276Z,4.90
2019-02-20T18:38:41.603Z,4.93
2019-02-20T18:41:22.013Z,5.27
2019-02-20T18:44:02.788Z,5.20
2019-02-20T18:46:43.222Z,5.60
2019-02-20T18:49:24.260Z,5.00
2019-02-20T18:52:04.604Z,5.30
2019-02-20T18:54:45.648Z,5.07
2019-02-20T18:57:25.977Z,5.33
2019-02-20T19:00:06.398Z,5.90
2019-02-20T19:02:47.187Z,5.70
2019-02-20T19:05:28.024Z,5.27
2019-02-20T19:08:09.113Z,5.37
2019-02-20T19:10:51.000Z,5.53
2019-02-20T19:13:31.510Z,4.83
2019-02-20T19:16:12.429Z,5.03
2019-02-20T19:19:02.047Z,5.70
2019-02-20T19:21:35.727Z,5.93
2019-02-20T19:24:16.656Z,6.23
2019-02-20T19:26:57.225Z,5.67
2019-02-20T19:29:38.528Z,6.27
2019-02-20T19:32:21.313Z,5.67
2019-02-20T19:35:02.435Z,5.83
2019-02-20T19:37:43.110Z,5.83
2019-02-20T19:40:23.666Z,6.30
2019-02-20T19:43:04.592Z,6.43
2019-02-20T19:45:45.537Z,6.43
2019-02-20T19:48:26.345Z,6.53
2019-02-20T19:51:07.439Z,6.27
2019-02-20T19:53:48.138Z,5.83
2019-02-20T19:56:28.451Z,6.30
2019-02-20T19:59:09.310Z,5.53
2019-02-20T20:01:49.971Z,5.70
2019-02-20T20:04:31.100Z,5.97
2019-02-20T20:07:11.686Z,7.03
2019-02-20T20:09:52.832Z,5.90
2019-02-20T20:12:33.930Z,5.87
2019-02-20T20:15:14.677Z,6.80
2019-02-20T20:17:55.464Z,5.90
2019-02-20T20:20:36.221Z,6.80
2019-02-20T20:23:17.012Z,6.20
2019-02-20T20:25:58.152Z,6.80
2019-02-20T20:28:39.088Z,6.57
2019-02-20T20:31:19.533Z,6.53
2019-02-20T20:34:00.225Z,6.37
2019-02-20T20:36:41.078Z,8.10
2019-02-20T20:39:21.473Z,6.83
2019-02-20T20:42:01.960Z,6.97
2019-02-20T20:44:42.517Z,6.67
2019-02-20T20:47:25.242Z,6.23
2019-02-20T20:50:05.773Z,7.27
2019-02-20T20:52:46.395Z,7.23
2019-02-20T20:55:27.127Z,6.97
2019-02-20T20:58:07.621Z,8.00
2019-02-20T21:00:48.169Z,7.67
2019-02-20T21:03:28.893Z,8.00
2019-02-20T21:06:09.481Z,7.43
2019-02-20T21:08:50.421Z,7.50
2019-02-20T21:11:31.517Z,7.73
2019-02-20T21:14:12.032Z,8.07
2019-02-20T21:16:52.895Z,8.00
2019-02-20T21:19:33.625Z,8.27
2019-02-20T21:22:14.536Z,8.63
2019-02-20T21:24:55.307Z,8.20
2019-02-20T21:27:35.698Z,8.50
2019-02-20T21:30:16.109Z,9.37
2019-02-20T21:32:57.017Z,8.30
2019-02-20T21:35:37.700Z,9.40
2019-02-20T21:38:18.163Z,9.13
2019-02-20T21:40:58.377Z,9.00
2019-02-20T21:43:39.337Z,8.90
2019-02-20T21:46:19.928Z,8.43
2019-02-20T21:49:00.516Z,9.93
2019-02-20T21:51:41.281Z,9.50
2019-02-20T21:54:21.897Z,9.37
2019-02-20T21:57:02.604Z,9.77
2019-02-20T21:59:43.073Z,9.43
2019-02-20T22:02:23.777Z,10.20
2019-02-20T22:05:04.989Z,10.70
2019-02-20T22:07:45.761Z,9.50
2019-02-20T22:10:26.408Z,9.23
2019-02-20T22:13:07.550Z,9.93
2019-02-20T22:15:48.051Z,10.60
2019-02-20T22:18:28.684Z,11.10
2019-02-20T22:21:09.476Z,11.07
2019-02-20T22:23:50.412Z,4.30
2019-02-20T22:26:31.044Z,10.30
2019-02-20T22:29:11.892Z,10.27
2019-02-20T22:31:52.832Z,10.63
2019-02-20T22:34:33.353Z,11.73
2019-02-20T22:37:14.130Z,11.20
2019-02-20T22:39:55.216Z,11.50
2019-02-20T22:42:36.229Z,10.17
2019-02-20T22:45:16.536Z,11.43
2019-02-20T22:47:57.355Z,11.47
2019-02-20T22:50:38.085Z,10.67
2019-02-20T22:53:18.752Z,12.07
2019-02-20T22:55:59.620Z,11.87
2019-02-20T22:58:40.549Z,11.87
2019-02-20T23:01:21.305Z,11.33
2019-02-20T23:04:01.765Z,12.40
2019-02-20T23:07:08.856Z,11.77
2019-02-20T23:10:17.362Z,12.50
2019-02-20T23:13:25.853Z,12.03
2019-02-20T23:16:13.616Z,12.70
2019-02-20T23:19:01.375Z,13.20
2019-02-20T23:21:49.153Z,12.30
2019-02-20T23:24:29.889Z,12.27
2019-02-20T23:27:10.865Z,12.93
2019-02-20T23:29:51.843Z,11.20
2019-02-20T23:32:32.528Z,12.43
2019-02-20T23:35:13.279Z,12.37
2019-02-20T23:37:53.681Z,13.07
2019-02-20T23:40:34.333Z,12.27
2019-02-20T23:43:15.168Z,12.83
2019-02-20T23:45:55.882Z,12.13
2019-02-20T23:48:36.509Z,13.53
2019-02-20T23:51:17.213Z,13.03
2019-02-20T23:53:57.614Z,13.03
2019-02-20T23:56:38.294Z,13.30
2019-02-20T23:59:19.064Z,12.83
